Cisco Butte, California Weather observations

Data are for observation ending at time listed.
 Day   Time    Ave.   Ave.  Ave.  Vector   Max.   Stn.    Total    Solar   Ave.   Snow 
  of    of     Air    Rel.  Wind   Wind    Wind   Baro.  Precip.   Rad.    Soil   Depth
Year   Day     Temp.  Hum.  Speed  Dir.    Gust   Pres.                    Temp.       
2014   (PST)    F      %     mph   deg.    mph     mb.     in.     W/m2     F      in. 
---------------------------------------------------------------------------------------  
 209    0:50   63.7    32    3.5    96      5.8   830.0    0.00       0    999.0   -0.3
 209    1:00   63.6    31    3.3    89      6.4   830.0    0.00       0    999.0   -0.3
 209    1:10   63.0    32    4.3    92      7.2   830.0    0.00       0    999.0   -0.3
 209    1:20   62.1    33    5.6   102     10.7   830.0    0.00       0    999.0   -0.2
 209    1:30   62.4    32    4.7    95      8.0   830.0    0.00       0    999.0   -0.2
 209    1:40   63.6    30    3.2    96      5.0   830.0    0.00       0    999.0   -0.1
 209    1:50   65.0    28    2.4    80      4.1   830.0    0.00       0    999.0   -0.1
 209    2:00   64.4    29    2.9    89      4.5   830.0    0.00       0    999.0   -0.2
 209    2:10   62.8    32    3.6    87      6.4   830.0    0.00       0    999.0   -0.3
 209    2:20   62.1    32    4.1    90      6.5   830.0    0.00       0    999.0   -0.2
 209    2:30   62.4    31    3.4    87      5.9   829.0    0.00       0    999.0   -0.2
 209    2:40   62.4    31    4.6    97      9.6   829.0    0.00       0    999.0   -0.2
 209    2:50   61.3    33    5.7    99      9.8   829.0    0.00       0    999.0   -0.2
 209    3:00   62.1    32    4.5    92      6.6   829.0    0.00       0    999.0   -0.2
 209    3:10   63.3    30    3.8    86      5.9   829.0    0.00       0    999.0   -0.2
 209    3:20   62.9    31    4.1    91      8.3   829.0    0.00       0    999.0   -0.2
 209    3:30   61.6    32    4.4    78      7.1   830.0    0.00       0    999.0   -0.2
 209    3:40   61.9    32    4.8    85      6.9   830.0    0.00       0    999.0   -0.2
 209    3:50   62.1    32    5.2    96      8.9   830.0    0.00       0    999.0   -0.2
 209    4:00   62.3    31    4.2    93      6.7   830.0    0.00       0    999.0   -0.2
 209    4:10   61.7    32    5.0    90      8.0   830.0    0.00       0    999.0   -0.2
 209    4:20   61.5    31    5.9   103     11.7   830.0    0.00       0    999.0   -0.2
 209    4:30   61.6    32    5.5    99      9.1   830.0    0.00       0    999.0   -0.3
 209    4:40   62.1    31    4.6    96      7.4   830.0    0.00       0    999.0   -0.2
 209    4:50   62.0    30    4.9    88      6.9   830.0    0.00       0    999.0   -0.2
 209    5:00   61.6    31    4.9    91      7.4   830.0    0.00       1    999.0   -0.2
 209    5:10   61.3    32    4.5    80      7.4   830.0    0.00       3    999.0   -0.1
 209    5:20   62.0    31    5.7    97      8.7   830.0    0.00      11    999.0   -0.2
 209    5:30   62.8    30    4.4    95      7.5   830.0    0.00      28    999.0   -0.3
 209    5:40   63.4    30    3.7    94      7.7   830.0    0.00      43    999.0   -0.4
 209    5:50   62.9    31    5.2   101      8.6   830.0    0.00      65    999.0   -0.4
 209    6:00   63.2    31    5.4   102      9.2   830.0    0.00      87    999.0   -0.3
 209    6:10   63.7    30    5.3   106      9.3   830.0    0.00      91    999.0   -0.4
 209    6:20   64.1    30    5.0   104      8.0   830.0    0.00      81    999.0   -0.4
 209    6:30   64.6    30    5.0   108      8.7   830.0    0.00      97    999.0   -0.3
 209    6:40   64.5    30    8.3   115     12.1   830.0    0.00     102    999.0   -0.3
 209    6:50   65.0    30    8.2   112     11.3   830.0    0.00     125    999.0   -0.4
 209    7:00   66.7    28    6.7   111     10.0   830.0    0.00     181    999.0   -0.4
 209    7:10   67.8    27    4.9   114      8.0   830.0    0.00     196    999.0   -0.4
 209    7:20   68.7    27    5.1   108      7.8   830.0    0.00     190    999.0   -0.4
 209    7:30   69.4    26    3.3   118      5.6   830.0    0.00     193    999.0   -0.5
 209    7:40   70.4    25    4.4   117      6.9   830.0    0.00     184    999.0   -0.5
 209    7:50   70.9    25    3.6   123      5.5   830.0    0.00     249    999.0   -0.6
 209    8:00   72.5    24    3.0   125      4.6   830.0    0.00     317    999.0   -0.7
 209    8:10   73.3    23    3.0   128      5.3   830.0    0.00     336    999.0   -0.8
 209    8:20   74.8    20    1.9   150      3.4   830.0    0.00     329    999.0   77.2
 209    8:30   76.1    16    1.9   222      3.9   830.0    0.00     322    999.0  154.6
 209    8:40   78.2    17    4.3   276      7.4   830.0    0.00     353    999.0  154.5
 209    8:50   76.6    21    5.2   278      7.9   830.0    0.00     365    999.0   29.2
 209    9:00   77.0    20    5.3   276      8.5   830.0    0.00     419    999.0   -0.9
 209    9:10   77.6    20    4.3   276      8.2   830.0    0.00     441    999.0   -0.9
 209    9:20   77.7    19    5.6   282      9.8   830.0    0.00     409    999.0   -0.9
 209    9:30   76.6    20    9.3   276     13.2   830.0    0.00     401    999.0   -0.6
 209    9:40   76.4    20    9.8   279     13.5   830.0    0.00     413    999.0   -0.6
 209    9:50   75.7    21    9.8   281     13.0   830.0    0.00     448    999.0   -0.5
 209   10:00   76.2    20   10.5   279     14.5   830.0    0.00     528    999.0   -0.5
 209   10:10   76.6    20   10.6   275     14.7   830.0    0.00     573    999.0   -0.5
 209   10:20   76.9    20   10.7   278     15.1   830.0    0.00     588    999.0   -0.4
 209   10:30   76.4    21   10.0   285     14.4   830.0    0.00     413    999.0   -0.5
 209   10:40   75.6    21   11.3   282     17.5   830.0    0.00     503    999.0   -0.4
 209   10:50   76.5    20   11.5   281     16.8   830.0    0.00     644    999.0   -0.6
 209   11:00   77.1    20   12.8   280     17.8   830.0    0.00     658    999.0   -0.4
 209   11:10   76.9    21   12.5   284     18.1   831.0    0.00     598    999.0   -0.3
 209   11:20   77.3    20   11.9   283     17.8   831.0    0.00     573    999.0   -0.3
 209   11:30   77.2    21   10.5   282     17.2   831.0    0.00     453    999.0   -0.4
 209   11:40   76.4    23   13.0   281     18.7   831.0    0.00     540    999.0   -0.5
 209   11:50   76.3    23   13.0   282     17.7   831.0    0.00     538    999.0   -0.4
 209   12:00   76.4    22   12.2   274     20.2   831.0    0.00     541    999.0   -0.3
 209   12:10   76.9    21   11.5   281     17.0   831.0    0.00     643    999.0   -0.4
 209   12:20   76.9    21   11.9   279     21.5   830.0    0.00     406    999.0   -0.4
 209   12:30   75.7    22   12.9   277     18.4   830.0    0.00     457    999.0   -0.2
 209   12:40   76.9    21   10.6   272     20.5   830.0    0.00     469    999.0   -0.3
 209   12:50   77.8    20   10.3   279     16.3   830.0    0.00     425    999.0   -0.4
 209   13:00   76.3    22   11.3   275     17.6   830.0    0.00     275    999.0   -0.4
 209   13:10   76.1    23   10.0   278     17.0   830.0    0.00     307    999.0   -0.4
 209   13:20   76.8    22   12.3   270     17.9   830.0    0.00     489    999.0   -0.4
 209   13:30   77.2    21   11.2   275     17.5   830.0    0.00     432    999.0   -0.4
 209   13:40   76.9    21   11.4   278     16.3   830.0    0.00     430    999.0   -0.4
 209   13:50   77.7    20   10.4   274     18.5   830.0    0.00     539    999.0   -0.4
 209   14:00   78.0    22   13.2   281     22.6   830.0    0.00     572    999.0   -0.4
 209   14:10   77.7    25   13.5   276     21.6   830.0    0.00     532    999.0   -0.4
 209   14:20   77.9    24   11.7   279     19.7   830.0    0.00     551    999.0   -0.3
 209   14:30   77.9    24   12.5   280     19.6   830.0    0.00     495    999.0   -0.4
 209   14:40   76.9    25   12.8   272     21.3   830.0    0.00     362    999.0   -0.3
 209   14:50   76.2    26   12.7   279     19.6   830.0    0.00     341    999.0   -0.3
 209   15:00   77.5    25   11.1   271     17.5   830.0    0.00     467    999.0   -0.4
 209   15:10   77.1    25   13.5   280     20.5   830.0    0.00     332    999.0   -0.5
 209   15:20   75.9    26   12.6   279     19.6   830.0    0.00     362    999.0   -0.4
 209   15:30   76.5    25   12.9   279     19.1   830.0    0.00     383    999.0   -0.5
 209   15:40   75.7    26   12.4   282     18.9   830.0    0.00     178    999.0   -0.4
 209   15:50   74.6    28   12.9   282     18.6   830.0    0.00     179    999.0   -0.4
 209   16:00   74.3    28   13.0   278     18.1   830.0    0.00     242    999.0   -0.4
 209   16:10   74.9    27   10.4   282     16.9   830.0    0.00     320    999.0   -0.3
 209   16:20   74.1    28   12.2   283     18.7   830.0    0.00     214    999.0   -0.4
 209   16:30   74.6    28   10.0   278     16.1   830.0    0.00     346    999.0   -0.5
 209   16:40   75.1    28   12.8   284     18.6   830.0    0.00     289    999.0   -0.4
 209   16:50   74.1    28   11.2   274     20.5   830.0    0.00     225    999.0   -0.5
 209   17:00   74.6    28   11.7   279     16.7   830.0    0.00     275    999.0   -0.4
 209   17:10   74.8    27   10.7   272     16.9   830.0    0.00     284    999.0   -0.6
 209   17:20   74.9    27   11.4   281     16.5   830.0    0.00     125    999.0   -0.5
 209   17:30   73.5    28   11.3   278     17.5   830.0    0.00     104    999.0   -0.6
 209   17:40   72.1    29   12.5   280     17.4   830.0    0.00      93    999.0   -0.5
 209   17:50   71.6    29   11.5   279     16.1   830.0    0.00      69    999.0   -0.4
 209   18:00   70.9    30   10.6   277     13.6   830.0    0.00      53    999.0   -0.4
 209   18:10   70.5    30    9.0   277     12.6   830.0    0.00      44    999.0   -0.3
 209   18:20   70.1    30    6.6   276     10.4   830.0    0.00      33    999.0   -0.2
 209   18:30   69.8    30    6.6   278      9.9   830.0    0.00      33    999.0   -0.1
 209   18:40   69.4    30    7.6   270     10.5   830.0    0.00      24    999.0   -0.1
 209   18:50   69.0    31    8.5   274     12.4   830.0    0.00      15    999.0   -0.2
 209   19:00   68.7    31    8.9   274     12.9   831.0    0.00      14    999.0   -0.2
 209   19:10   68.4    32    7.9   278     11.0   831.0    0.00       9    999.0   -0.2
 209   19:20   67.9    33    6.2   267      9.1   831.0    0.00       5    999.0   -0.3
 209   19:30   67.6    33    4.0   261      6.2   831.0    0.00       5    999.0   -0.3
 209   19:40   67.3    33    3.4   250      5.7   831.0    0.00       1    999.0   -0.2
 209   19:50   67.0    34    3.1   246      5.8   831.0    0.00       0    999.0   -0.1
 209   20:00   66.8    34    2.4   187      5.5   831.0    0.00       0    999.0   -0.1
 209   20:10   66.5    34    2.3   243      5.0   831.0    0.00       0    999.0   -0.1
 209   20:20   66.2    34    2.4   242      5.8   831.0    0.00       0    999.0   -0.2
 209   20:30   66.0    34    1.8   208      5.3   831.0    0.00       0    999.0   -0.1
 209   20:40   65.8    34    1.1   164      3.8   831.0    0.00       0    999.0   -0.0
 209   20:50   65.6    34    0.9   106      3.0   831.0    0.00       0    999.0    0.0
 209   21:00   65.6    34    4.6   100      6.3   831.0    0.00       0    999.0   -0.1
 209   21:10   65.3    35    3.0   104      5.0   831.0    0.00       0    999.0   -0.2
 209   21:20   65.5    35    2.1    95      3.8   831.0    0.00       0    999.0   -0.2
 209   21:30   65.1    36    3.1    94      4.5   831.0    0.00       0    999.0   -0.2
 209   21:40   65.3    35    3.0   102      4.5   831.0    0.00       0    999.0   -0.2
 209   21:50   65.2    35    2.1   100      3.0   831.0    0.00       0    999.0   -0.1
 209   22:00   65.2    35    1.8    82      2.9   831.0    0.00       0    999.0   -0.1
 209   22:10   65.3    35    0.6    52      1.2   831.0    0.00       0    999.0    0.2
 209   22:20   65.5    34    1.3    84      2.3   831.0    0.00       0    999.0    0.0
 209   22:30   64.5    37    1.5    82      3.1   831.0    0.00       0    999.0   -0.2
 209   22:40   64.2    38    1.9    85      2.8   831.0    0.00       0    999.0   -0.1
 209   22:50   63.8    39    2.8    87      3.9   831.0    0.00       0    999.0   -0.3
 209   23:00   63.4    39    2.5    63      3.7   831.0    0.00       0    999.0   -0.0
 209   23:10   63.3    39    2.1    84      2.9   831.0    0.00       0    999.0   -0.2
 209   23:20   62.7    41    3.0    84      5.1   831.0    0.00       0    999.0   -0.3
 209   23:30   62.2    42    4.1    92      6.3   831.0    0.00       0    999.0   -0.2
 209   23:40   61.6    43    3.2    82      6.2   831.0    0.00       0    999.0   -0.2
 209   23:50   61.8    43    3.1    88      4.7   831.0    0.00       0    999.0   -0.2
 210    0:00   61.5    43    3.3    85      4.5   831.0    0.00       0    999.0   -0.1
 210    0:10   61.6    43    3.2    84      5.6   831.0    0.00       0    999.0   -0.0
 210    0:20   61.8    43    2.9    74      4.5   831.0    0.00       0    999.0   -0.1
 210    0:30   61.5    44    3.0    86      5.3   831.0    0.00       0    999.0   -0.1
 210    0:40   60.8    45    3.9    91      6.8   831.0    0.00       0    999.0   -0.1

Return to Cisco Butte graphs page.


Western Regional Climate Center,wrcc@dri.edu